N124AB KLAX-KDEN
Flight info
| Callsign | N124AB |
|---|---|
| Flight time | 3h 51m |
| Altitude | 25000 |
| Route | HOLTZ9 DAG HVE RAMMS2 |
| Aircraft | PC24/M-V/N |
Departure
| Time | 2026-04-20 02:31 |
|---|---|
| Airport | Los Angeles International Airport (KLAX) |
Arrival
| Time | 2026-04-20 06:22 |
|---|---|
| Airport | Denver International Airport (KDEN) |
| Time | Latitude | Longitude | Altitude | Speed | Heading |
|---|---|---|---|---|---|
| 2026-04-20 00:06 | 33.94114 | -118.39419 | 121 ft | 0 kts | 359° |
| 2026-04-20 02:20 | 33.94112 | -118.39419 | 119 ft | 1 kts | 359° |
| 2026-04-20 02:21 | 33.94074 | -118.39419 | 121 ft | 3 kts | 360° |
| 2026-04-20 02:21 | 33.94054 | -118.39419 | 121 ft | 3 kts | 360° |
| 2026-04-20 02:21 | 33.94037 | -118.39418 | 121 ft | 1 kts | 0° |
| 2026-04-20 02:22 | 33.94031 | -118.39418 | 121 ft | 0 kts | 0° |
| 2026-04-20 02:24 | 33.94038 | -118.39413 | 118 ft | 4 kts | 56° |
| 2026-04-20 02:24 | 33.94036 | -118.39360 | 121 ft | 8 kts | 97° |
| 2026-04-20 02:24 | 33.94034 | -118.39294 | 121 ft | 8 kts | 87° |
| 2026-04-20 02:25 | 33.94018 | -118.39234 | 117 ft | 7 kts | 141° |
| 2026-04-20 02:25 | 33.93973 | -118.39201 | 120 ft | 8 kts | 127° |
| 2026-04-20 02:25 | 33.93967 | -118.39137 | 121 ft | 8 kts | 84° |
| 2026-04-20 02:25 | 33.93973 | -118.39065 | 121 ft | 9 kts | 84° |
| 2026-04-20 02:26 | 33.93982 | -118.38986 | 121 ft | 10 kts | 82° |
| 2026-04-20 02:26 | 33.93990 | -118.38899 | 121 ft | 11 kts | 84° |
| 2026-04-20 02:26 | 33.94000 | -118.38804 | 119 ft | 12 kts | 82° |
| 2026-04-20 02:26 | 33.94011 | -118.38704 | 121 ft | 13 kts | 83° |
| 2026-04-20 02:27 | 33.94022 | -118.38596 | 121 ft | 13 kts | 82° |
| 2026-04-20 02:27 | 33.94031 | -118.38499 | 121 ft | 10 kts | 83° |
| 2026-04-20 02:27 | 33.94040 | -118.38412 | 121 ft | 11 kts | 83° |
| 2026-04-20 02:27 | 33.94037 | -118.38350 | 119 ft | 0 kts | 130° |
| 2026-04-20 02:29 | 33.94041 | -118.38315 | 121 ft | 12 kts | 62° |
| 2026-04-20 02:29 | 33.94061 | -118.38213 | 121 ft | 13 kts | 82° |
| 2026-04-20 02:29 | 33.94073 | -118.38103 | 121 ft | 14 kts | 86° |
| 2026-04-20 02:29 | 33.94075 | -118.38051 | 121 ft | 5 kts | 93° |
| 2026-04-20 02:30 | 33.94068 | -118.38023 | 120 ft | 0 kts | 126° |
| 2026-04-20 02:30 | 33.94052 | -118.38008 | 121 ft | 18 kts | 153° |
| 2026-04-20 02:30 | 33.93976 | -118.38137 | 121 ft | 38 kts | 263° |
| 2026-04-20 02:31 | 33.93910 | -118.38778 | 119 ft | 122 kts | 263° |
| 2026-04-20 02:31 | 33.93781 | -118.40076 | 355 ft | 189 kts | 263° |
| 2026-04-20 02:31 | 33.93602 | -118.41824 | 1131 ft | 224 kts | 263° |
| 2026-04-20 02:31 | 33.93471 | -118.43086 | 2106 ft | 223 kts | 262° |
| 2026-04-20 02:32 | 33.93319 | -118.44334 | 3183 ft | 219 kts | 258° |
| 2026-04-20 02:32 | 33.92873 | -118.46045 | 4602 ft | 213 kts | 243° |
| 2026-04-20 02:32 | 33.92381 | -118.47081 | 5487 ft | 211 kts | 231° |
| 2026-04-20 02:32 | 33.91321 | -118.48276 | 6579 ft | 217 kts | 208° |
| 2026-04-20 02:33 | 33.89826 | -118.48739 | 7497 ft | 226 kts | 175° |
| 2026-04-20 02:33 | 33.88445 | -118.47987 | 8716 ft | 227 kts | 135° |
| 2026-04-20 02:33 | 33.87821 | -118.46243 | 9999 ft | 227 kts | 102° |
| 2026-04-20 02:33 | 33.87767 | -118.45279 | 10587 ft | 231 kts | 92° |
| 2026-04-20 02:34 | 33.87893 | -118.44030 | 11012 ft | 251 kts | 79° |
| 2026-04-20 02:35 | 33.88756 | -118.41977 | 11070 ft | 302 kts | 55° |
| 2026-04-20 02:35 | 33.90182 | -118.39894 | 11168 ft | 339 kts | 51° |
| 2026-04-20 02:35 | 33.91797 | -118.37754 | 11373 ft | 353 kts | 48° |
| 2026-04-20 02:35 | 33.93375 | -118.35728 | 11354 ft | 309 kts | 51° |
| 2026-04-20 02:36 | 33.94747 | -118.33983 | 11581 ft | 267 kts | 49° |
| 2026-04-20 02:36 | 33.95866 | -118.32364 | 11696 ft | 237 kts | 57° |
| 2026-04-20 02:36 | 33.96763 | -118.30805 | 11751 ft | 216 kts | 60° |
| 2026-04-20 02:36 | 33.97541 | -118.29373 | 11904 ft | 193 kts | 61° |
| 2026-04-20 02:37 | 33.98250 | -118.28072 | 11940 ft | 181 kts | 61° |
| 2026-04-20 02:37 | 33.98928 | -118.26836 | 11945 ft | 172 kts | 61° |
| 2026-04-20 02:37 | 33.99577 | -118.25664 | 11946 ft | 164 kts | 61° |
| 2026-04-20 02:37 | 34.00200 | -118.24548 | 11946 ft | 157 kts | 61° |
| 2026-04-20 02:38 | 34.00803 | -118.23479 | 11947 ft | 154 kts | 61° |
| 2026-04-20 02:38 | 34.01475 | -118.22257 | 12042 ft | 201 kts | 61° |
| 2026-04-20 02:38 | 34.02296 | -118.20711 | 12545 ft | 233 kts | 61° |
| 2026-04-20 02:38 | 34.03218 | -118.18948 | 12975 ft | 269 kts | 61° |
| 2026-04-20 02:39 | 34.04283 | -118.16884 | 12922 ft | 317 kts | 61° |
| 2026-04-20 02:39 | 34.05524 | -118.14479 | 12852 ft | 357 kts | 60° |
| 2026-04-20 02:39 | 34.06827 | -118.11986 | 12746 ft | 332 kts | 60° |
| 2026-04-20 02:39 | 34.07973 | -118.09733 | 12616 ft | 299 kts | 62° |
| 2026-04-20 02:40 | 34.08959 | -118.07766 | 13127 ft | 249 kts | 62° |
| 2026-04-20 02:40 | 34.09811 | -118.06125 | 13507 ft | 214 kts | 62° |
| 2026-04-20 02:40 | 34.10575 | -118.04709 | 13718 ft | 190 kts | 62° |
| 2026-04-20 02:40 | 34.11281 | -118.03437 | 13796 ft | 176 kts | 61° |
| 2026-04-20 02:41 | 34.11955 | -118.02246 | 13800 ft | 168 kts | 61° |
| 2026-04-20 02:41 | 34.12605 | -118.01104 | 13772 ft | 163 kts | 61° |
| 2026-04-20 02:41 | 34.13243 | -117.99990 | 13727 ft | 160 kts | 61° |
| 2026-04-20 02:41 | 34.13874 | -117.98892 | 13659 ft | 158 kts | 61° |
| 2026-04-20 02:42 | 34.14499 | -117.97808 | 13593 ft | 157 kts | 61° |
| 2026-04-20 02:42 | 34.15119 | -117.96733 | 13520 ft | 156 kts | 62° |
| 2026-04-20 02:42 | 34.15782 | -117.95565 | 13594 ft | 191 kts | 61° |
| 2026-04-20 02:42 | 34.16572 | -117.94120 | 14147 ft | 217 kts | 62° |
| 2026-04-20 02:43 | 34.17439 | -117.92508 | 14720 ft | 242 kts | 61° |
| 2026-04-20 02:43 | 34.18391 | -117.90708 | 15304 ft | 266 kts | 61° |
| 2026-04-20 02:43 | 34.19414 | -117.88750 | 15945 ft | 285 kts | 61° |
| 2026-04-20 02:43 | 34.20495 | -117.86661 | 16651 ft | 300 kts | 61° |
| 2026-04-20 02:44 | 34.21614 | -117.84479 | 17397 ft | 311 kts | 61° |
| 2026-04-20 02:44 | 34.22761 | -117.82221 | 18193 ft | 319 kts | 61° |
| 2026-04-20 02:44 | 34.23931 | -117.79903 | 18901 ft | 326 kts | 61° |
| 2026-04-20 02:44 | 34.25112 | -117.77538 | 19677 ft | 331 kts | 61° |
| 2026-04-20 02:45 | 34.26302 | -117.75124 | 20500 ft | 336 kts | 61° |
| 2026-04-20 02:45 | 34.27491 | -117.72681 | 21344 ft | 339 kts | 61° |
| 2026-04-20 02:45 | 34.28665 | -117.70231 | 22206 ft | 342 kts | 61° |
| 2026-04-20 02:45 | 34.29851 | -117.67717 | 23094 ft | 345 kts | 61° |
| 2026-04-20 02:46 | 34.31028 | -117.65181 | 23918 ft | 347 kts | 61° |
| 2026-04-20 02:46 | 34.32204 | -117.62600 | 24549 ft | 354 kts | 61° |
| 2026-04-20 02:46 | 34.33408 | -117.59925 | 24888 ft | 370 kts | 61° |
| 2026-04-20 02:46 | 34.34668 | -117.57104 | 24946 ft | 393 kts | 61° |
| 2026-04-20 02:47 | 34.36003 | -117.54120 | 24949 ft | 413 kts | 61° |
| 2026-04-20 02:47 | 34.37407 | -117.51000 | 24947 ft | 430 kts | 60° |
| 2026-04-20 02:47 | 34.38858 | -117.47797 | 24938 ft | 422 kts | 60° |
| 2026-04-20 02:47 | 34.40185 | -117.44808 | 24913 ft | 383 kts | 62° |
| 2026-04-20 02:48 | 34.41367 | -117.42079 | 24907 ft | 351 kts | 62° |
| 2026-04-20 02:48 | 34.42463 | -117.39552 | 24904 ft | 324 kts | 61° |
| 2026-04-20 02:48 | 34.43524 | -117.37255 | 24904 ft | 302 kts | 59° |
| 2026-04-20 02:48 | 34.44541 | -117.35154 | 24904 ft | 284 kts | 59° |
| 2026-04-20 02:49 | 34.45524 | -117.33159 | 24967 ft | 267 kts | 58° |
| 2026-04-20 02:49 | 34.46455 | -117.31277 | 24967 ft | 253 kts | 58° |
| 2026-04-20 02:49 | 34.47336 | -117.29496 | 24967 ft | 241 kts | 58° |
| 2026-04-20 02:49 | 34.48176 | -117.27795 | 24966 ft | 230 kts | 58° |
| 2026-04-20 02:50 | 34.48977 | -117.26171 | 24965 ft | 219 kts | 58° |
| 2026-04-20 02:50 | 34.49744 | -117.24617 | 24965 ft | 210 kts | 58° |
| 2026-04-20 02:50 | 34.50480 | -117.23119 | 24964 ft | 202 kts | 58° |
| 2026-04-20 02:50 | 34.51187 | -117.21678 | 24961 ft | 195 kts | 58° |
| 2026-04-20 02:51 | 34.51902 | -117.20224 | 24986 ft | 215 kts | 58° |
| 2026-04-20 02:51 | 34.52739 | -117.18528 | 24973 ft | 254 kts | 58° |
| 2026-04-20 02:51 | 34.53717 | -117.16553 | 24983 ft | 292 kts | 58° |
| 2026-04-20 02:51 | 34.54831 | -117.14312 | 24964 ft | 327 kts | 58° |
| 2026-04-20 02:52 | 34.56071 | -117.11832 | 24934 ft | 358 kts | 58° |
| 2026-04-20 02:52 | 34.57416 | -117.09156 | 24918 ft | 385 kts | 58° |
| 2026-04-20 02:52 | 34.58854 | -117.06303 | 24910 ft | 408 kts | 58° |
| 2026-04-20 02:52 | 34.60356 | -117.03338 | 24908 ft | 426 kts | 58° |
| 2026-04-20 02:53 | 34.61959 | -117.00190 | 24913 ft | 435 kts | 58° |
| 2026-04-20 02:53 | 34.63451 | -116.97239 | 24892 ft | 396 kts | 58° |
| 2026-04-20 02:53 | 34.64812 | -116.94488 | 24883 ft | 363 kts | 59° |
| 2026-04-20 02:53 | 34.66053 | -116.91959 | 24883 ft | 335 kts | 59° |
| 2026-04-20 02:54 | 34.67211 | -116.89608 | 24882 ft | 313 kts | 58° |
| 2026-04-20 02:54 | 34.68294 | -116.87417 | 24885 ft | 293 kts | 58° |
| 2026-04-20 02:54 | 34.69316 | -116.85355 | 24885 ft | 277 kts | 58° |
| 2026-04-20 02:54 | 34.70282 | -116.83406 | 24886 ft | 262 kts | 58° |
| 2026-04-20 02:55 | 34.71202 | -116.81548 | 24887 ft | 250 kts | 58° |
| 2026-04-20 02:55 | 34.72078 | -116.79775 | 24887 ft | 239 kts | 58° |
| 2026-04-20 02:55 | 34.72905 | -116.78102 | 24888 ft | 228 kts | 58° |
| 2026-04-20 02:55 | 34.73707 | -116.76480 | 24889 ft | 219 kts | 58° |
| 2026-04-20 02:56 | 34.74477 | -116.74920 | 24888 ft | 211 kts | 58° |
| 2026-04-20 02:56 | 34.75220 | -116.73413 | 24889 ft | 204 kts | 58° |
| 2026-04-20 02:56 | 34.75935 | -116.71962 | 24887 ft | 196 kts | 58° |
| 2026-04-20 02:56 | 34.76627 | -116.70555 | 24889 ft | 195 kts | 58° |
| 2026-04-20 02:57 | 34.77383 | -116.69020 | 24943 ft | 230 kts | 58° |
| 2026-04-20 02:57 | 34.78275 | -116.67217 | 25000 ft | 268 kts | 58° |
| 2026-04-20 02:57 | 34.79305 | -116.65148 | 24999 ft | 304 kts | 58° |
| 2026-04-20 02:57 | 34.80468 | -116.62819 | 24967 ft | 338 kts | 58° |
| 2026-04-20 02:58 | 34.81748 | -116.60265 | 24933 ft | 367 kts | 58° |
| 2026-04-20 02:58 | 34.83130 | -116.57514 | 24921 ft | 392 kts | 58° |
| 2026-04-20 02:58 | 34.84788 | -116.54851 | 24898 ft | 410 kts | 42° |
| 2026-04-20 02:58 | 34.87250 | -116.53008 | 24893 ft | 424 kts | 19° |
| 2026-04-20 02:59 | 34.90129 | -116.52157 | 24907 ft | 419 kts | 7° |
| 2026-04-20 02:59 | 34.92878 | -116.51762 | 24892 ft | 378 kts | 3° |
| 2026-04-20 02:59 | 34.95394 | -116.51528 | 24879 ft | 346 kts | 1° |
| 2026-04-20 02:59 | 34.97708 | -116.51335 | 24876 ft | 320 kts | 1° |
| 2026-04-20 03:00 | 34.99859 | -116.51150 | 24874 ft | 299 kts | 1° |
| 2026-04-20 03:00 | 35.01867 | -116.50971 | 24874 ft | 280 kts | 1° |
| 2026-04-20 03:00 | 35.03756 | -116.50795 | 24873 ft | 264 kts | 1° |
| 2026-04-20 03:00 | 35.05542 | -116.50623 | 24874 ft | 251 kts | 1° |
| 2026-04-20 03:01 | 35.07238 | -116.50454 | 24871 ft | 239 kts | 1° |
| 2026-04-20 03:01 | 35.08859 | -116.50287 | 24865 ft | 228 kts | 1° |
| 2026-04-20 03:01 | 35.10403 | -116.50124 | 24863 ft | 218 kts | 1° |
| 2026-04-20 03:01 | 35.11887 | -116.49963 | 24861 ft | 210 kts | 1° |
| 2026-04-20 03:02 | 35.13296 | -116.49804 | 24861 ft | 202 kts | 1° |
| 2026-04-20 03:02 | 35.14658 | -116.49534 | 24853 ft | 197 kts | 16° |
| 2026-04-20 03:02 | 35.15886 | -116.48736 | 24908 ft | 212 kts | 32° |
| 2026-04-20 03:02 | 35.17197 | -116.47604 | 24958 ft | 251 kts | 36° |
| 2026-04-20 03:03 | 35.18671 | -116.46174 | 24967 ft | 289 kts | 42° |
| 2026-04-20 03:03 | 35.20058 | -116.44187 | 24949 ft | 324 kts | 53° |
| 2026-04-20 03:03 | 35.21541 | -116.41937 | 24935 ft | 355 kts | 49° |
| 2026-04-20 03:03 | 35.23262 | -116.39612 | 24920 ft | 382 kts | 47° |
| 2026-04-20 03:04 | 35.25151 | -116.37176 | 24914 ft | 405 kts | 46° |
| 2026-04-20 03:04 | 35.27155 | -116.34622 | 24906 ft | 424 kts | 46° |
| 2026-04-20 03:04 | 35.29235 | -116.31973 | 24902 ft | 438 kts | 46° |
| 2026-04-20 03:04 | 35.31244 | -116.29433 | 24890 ft | 400 kts | 45° |
| 2026-04-20 03:05 | 35.33126 | -116.27141 | 24873 ft | 365 kts | 44° |
| 2026-04-20 03:05 | 35.34867 | -116.25047 | 24872 ft | 336 kts | 45° |
| 2026-04-20 03:05 | 35.36482 | -116.23105 | 24868 ft | 313 kts | 45° |
| 2026-04-20 03:05 | 35.37983 | -116.21295 | 24869 ft | 293 kts | 45° |
| 2026-04-20 03:06 | 35.39388 | -116.19594 | 24868 ft | 276 kts | 45° |
| 2026-04-20 03:06 | 35.40717 | -116.17983 | 24872 ft | 261 kts | 45° |
| 2026-04-20 03:06 | 35.41976 | -116.16456 | 24872 ft | 248 kts | 45° |
| 2026-04-20 03:06 | 35.43172 | -116.15006 | 24872 ft | 237 kts | 45° |
| 2026-04-20 03:07 | 35.44319 | -116.13617 | 24872 ft | 227 kts | 45° |
| 2026-04-20 03:07 | 35.45419 | -116.12286 | 24888 ft | 218 kts | 45° |
| 2026-04-20 03:07 | 35.46475 | -116.11009 | 24888 ft | 209 kts | 45° |
| 2026-04-20 03:07 | 35.47482 | -116.09794 | 24887 ft | 202 kts | 45° |
| 2026-04-20 03:08 | 35.48466 | -116.08607 | 24885 ft | 195 kts | 45° |
| 2026-04-20 03:08 | 35.49454 | -116.07414 | 24908 ft | 212 kts | 45° |
| 2026-04-20 03:08 | 35.50597 | -116.06026 | 24971 ft | 251 kts | 45° |
| 2026-04-20 03:08 | 35.51931 | -116.04402 | 24991 ft | 289 kts | 45° |
| 2026-04-20 03:09 | 35.53447 | -116.02550 | 24983 ft | 324 kts | 45° |
| 2026-04-20 03:09 | 35.55125 | -116.00494 | 24958 ft | 356 kts | 45° |
| 2026-04-20 03:09 | 35.56942 | -115.98256 | 24937 ft | 383 kts | 45° |
| 2026-04-20 03:09 | 35.58883 | -115.95857 | 24934 ft | 406 kts | 45° |
| 2026-04-20 03:10 | 35.60921 | -115.93327 | 24937 ft | 424 kts | 46° |
| 2026-04-20 03:10 | 35.63025 | -115.90700 | 24934 ft | 430 kts | 46° |
| 2026-04-20 03:10 | 35.65034 | -115.88220 | 24937 ft | 390 kts | 45° |
| 2026-04-20 03:10 | 35.66895 | -115.85986 | 24925 ft | 357 kts | 44° |
| 2026-04-20 03:11 | 35.68607 | -115.83948 | 24924 ft | 330 kts | 44° |
| 2026-04-20 03:11 | 35.70193 | -115.82052 | 24923 ft | 307 kts | 45° |
| 2026-04-20 03:11 | 35.71669 | -115.80276 | 24923 ft | 288 kts | 45° |
| 2026-04-20 03:11 | 35.73053 | -115.78603 | 24923 ft | 271 kts | 45° |
| 2026-04-20 03:12 | 35.74361 | -115.77020 | 24924 ft | 256 kts | 45° |
| 2026-04-20 03:12 | 35.75604 | -115.75518 | 24936 ft | 243 kts | 45° |
| 2026-04-20 03:12 | 35.76715 | -115.74020 | 24935 ft | 231 kts | 53° |
| 2026-04-20 03:12 | 35.77625 | -115.72477 | 24937 ft | 220 kts | 58° |
| 2026-04-20 03:13 | 35.78451 | -115.70937 | 24932 ft | 211 kts | 59° |
| 2026-04-20 03:13 | 35.79242 | -115.69427 | 24932 ft | 203 kts | 59° |
| 2026-04-20 03:13 | 35.79983 | -115.68010 | 24932 ft | 195 kts | 59° |
| 2026-04-20 03:13 | 35.80715 | -115.66614 | 24942 ft | 200 kts | 59° |
| 2026-04-20 03:14 | 35.81537 | -115.65034 | 25005 ft | 238 kts | 59° |
| 2026-04-20 03:14 | 35.82499 | -115.63168 | 25036 ft | 277 kts | 59° |
| 2026-04-20 03:14 | 35.83598 | -115.61029 | 25035 ft | 313 kts | 59° |
| 2026-04-20 03:14 | 35.84824 | -115.58637 | 24998 ft | 346 kts | 59° |
| 2026-04-20 03:15 | 35.86161 | -115.56022 | 24975 ft | 374 kts | 59° |
| 2026-04-20 03:15 | 35.87595 | -115.53216 | 24971 ft | 398 kts | 59° |
| 2026-04-20 03:15 | 35.89113 | -115.50245 | 24971 ft | 418 kts | 59° |
| 2026-04-20 03:15 | 35.90679 | -115.47186 | 24977 ft | 434 kts | 59° |
| 2026-04-20 03:16 | 35.92249 | -115.44120 | 24966 ft | 402 kts | 59° |
| 2026-04-20 03:16 | 35.93581 | -115.41272 | 24945 ft | 366 kts | 63° |
| 2026-04-20 03:16 | 35.94676 | -115.38580 | 24945 ft | 336 kts | 66° |
| 2026-04-20 03:16 | 35.95648 | -115.36069 | 24943 ft | 312 kts | 66° |
| 2026-04-20 03:17 | 35.96549 | -115.33735 | 24943 ft | 291 kts | 66° |
| 2026-04-20 03:17 | 35.97400 | -115.31552 | 24942 ft | 274 kts | 66° |
| 2026-04-20 03:17 | 35.98209 | -115.29492 | 24939 ft | 259 kts | 66° |
| 2026-04-20 03:17 | 35.98722 | -115.28195 | 24938 ft | 250 kts | 66° |
| 2026-04-20 03:18 | 35.99469 | -115.26314 | 24936 ft | 237 kts | 66° |
| 2026-04-20 03:18 | 36.00181 | -115.24529 | 24937 ft | 227 kts | 66° |
| 2026-04-20 03:18 | 36.00865 | -115.22822 | 24937 ft | 217 kts | 66° |
| 2026-04-20 03:18 | 36.01523 | -115.21189 | 24937 ft | 208 kts | 66° |
| 2026-04-20 03:19 | 36.02158 | -115.19619 | 24918 ft | 200 kts | 66° |
| 2026-04-20 03:19 | 36.02771 | -115.18112 | 24918 ft | 193 kts | 66° |
| 2026-04-20 03:19 | 36.03369 | -115.16643 | 24927 ft | 198 kts | 66° |
| 2026-04-20 03:19 | 36.04039 | -115.14975 | 24993 ft | 236 kts | 66° |
| 2026-04-20 03:20 | 36.04821 | -115.13002 | 25024 ft | 274 kts | 66° |
| 2026-04-20 03:20 | 36.05709 | -115.10737 | 25020 ft | 310 kts | 66° |
| 2026-04-20 03:20 | 36.06683 | -115.08236 | 24983 ft | 343 kts | 66° |
| 2026-04-20 03:20 | 36.07759 | -115.05465 | 24952 ft | 371 kts | 66° |
| 2026-04-20 03:21 | 36.08911 | -115.02494 | 24946 ft | 395 kts | 66° |
| 2026-04-20 03:21 | 36.10133 | -114.99355 | 24922 ft | 415 kts | 66° |
| 2026-04-20 03:21 | 36.11425 | -114.96082 | 24875 ft | 431 kts | 65° |
| 2026-04-20 03:21 | 36.12725 | -114.92817 | 24859 ft | 404 kts | 66° |
| 2026-04-20 03:22 | 36.13893 | -114.89824 | 24844 ft | 368 kts | 66° |
| 2026-04-20 03:22 | 36.14949 | -114.87086 | 24845 ft | 338 kts | 66° |
| 2026-04-20 03:22 | 36.15935 | -114.84562 | 24839 ft | 314 kts | 66° |
| 2026-04-20 03:22 | 36.16865 | -114.82220 | 24837 ft | 294 kts | 66° |
| 2026-04-20 03:23 | 36.17752 | -114.80023 | 24835 ft | 276 kts | 66° |
| 2026-04-20 03:23 | 36.18585 | -114.77983 | 24833 ft | 262 kts | 66° |
| 2026-04-20 03:23 | 36.19395 | -114.76031 | 24828 ft | 249 kts | 64° |
| 2026-04-20 03:23 | 36.20268 | -114.74239 | 24826 ft | 238 kts | 60° |
| 2026-04-20 03:24 | 36.21142 | -114.72552 | 24824 ft | 228 kts | 60° |
| 2026-04-20 03:24 | 36.21974 | -114.70929 | 24822 ft | 219 kts | 61° |
| 2026-04-20 03:24 | 36.22772 | -114.69367 | 24819 ft | 210 kts | 61° |
| 2026-04-20 03:24 | 36.23541 | -114.67865 | 24817 ft | 203 kts | 61° |
| 2026-04-20 03:25 | 36.24285 | -114.66418 | 24814 ft | 196 kts | 61° |
| 2026-04-20 03:25 | 36.25013 | -114.65012 | 24816 ft | 197 kts | 61° |
| 2026-04-20 03:25 | 36.25813 | -114.63451 | 24878 ft | 234 kts | 61° |
| 2026-04-20 03:25 | 36.26747 | -114.61599 | 24913 ft | 273 kts | 61° |
| 2026-04-20 03:26 | 36.27810 | -114.59462 | 24910 ft | 309 kts | 61° |
| 2026-04-20 03:26 | 36.28991 | -114.57059 | 24876 ft | 343 kts | 61° |
| 2026-04-20 03:26 | 36.30282 | -114.54418 | 24840 ft | 372 kts | 61° |
| 2026-04-20 03:26 | 36.31646 | -114.51613 | 24839 ft | 396 kts | 61° |
| 2026-04-20 03:27 | 36.33103 | -114.48610 | 24834 ft | 416 kts | 60° |
| 2026-04-20 03:27 | 36.34625 | -114.45474 | 24837 ft | 433 kts | 60° |
| 2026-04-20 03:27 | 36.36151 | -114.42329 | 24834 ft | 407 kts | 60° |
| 2026-04-20 03:27 | 36.37539 | -114.39452 | 24815 ft | 371 kts | 61° |
| 2026-04-20 03:28 | 36.38811 | -114.36814 | 24826 ft | 341 kts | 61° |
| 2026-04-20 03:28 | 36.39995 | -114.34392 | 24824 ft | 316 kts | 61° |
| 2026-04-20 03:28 | 36.42164 | -114.30038 | 24825 ft | 278 kts | 61° |
| 2026-04-20 03:29 | 36.43167 | -114.28054 | 24825 ft | 263 kts | 61° |
| 2026-04-20 03:29 | 36.44120 | -114.26180 | 24824 ft | 250 kts | 61° |
| 2026-04-20 03:29 | 36.45019 | -114.24424 | 24831 ft | 238 kts | 61° |
| 2026-04-20 03:29 | 36.45891 | -114.22729 | 24829 ft | 228 kts | 61° |
| 2026-04-20 03:30 | 36.46732 | -114.21104 | 24831 ft | 218 kts | 61° |
| 2026-04-20 03:30 | 36.47543 | -114.19549 | 24832 ft | 210 kts | 61° |
| 2026-04-20 03:30 | 36.48325 | -114.18056 | 24833 ft | 202 kts | 61° |
| 2026-04-20 03:30 | 36.49084 | -114.16618 | 24834 ft | 196 kts | 61° |
| 2026-04-20 03:31 | 36.49834 | -114.15195 | 24853 ft | 206 kts | 61° |
| 2026-04-20 03:31 | 36.50682 | -114.13555 | 24915 ft | 245 kts | 61° |
| 2026-04-20 03:31 | 36.51664 | -114.11614 | 24953 ft | 284 kts | 61° |
| 2026-04-20 03:31 | 36.52770 | -114.09398 | 24947 ft | 320 kts | 61° |
| 2026-04-20 03:32 | 36.53994 | -114.06922 | 24906 ft | 352 kts | 61° |
| 2026-04-20 03:32 | 36.55326 | -114.04212 | 24883 ft | 380 kts | 60° |
| 2026-04-20 03:32 | 36.56724 | -114.01355 | 24868 ft | 403 kts | 60° |
| 2026-04-20 03:32 | 36.58216 | -113.98299 | 24899 ft | 422 kts | 60° |
| 2026-04-20 03:33 | 36.59771 | -113.95112 | 24900 ft | 437 kts | 60° |
| 2026-04-20 03:33 | 36.61288 | -113.92003 | 24884 ft | 400 kts | 61° |
| 2026-04-20 03:33 | 36.62669 | -113.89159 | 24868 ft | 366 kts | 61° |
| 2026-04-20 03:33 | 36.63937 | -113.86555 | 24893 ft | 337 kts | 61° |
| 2026-04-20 03:34 | 36.65115 | -113.84155 | 24894 ft | 314 kts | 61° |
| 2026-04-20 03:34 | 36.66224 | -113.81912 | 24894 ft | 294 kts | 61° |
| 2026-04-20 03:34 | 36.67269 | -113.79814 | 24894 ft | 277 kts | 61° |
| 2026-04-20 03:34 | 36.68264 | -113.77830 | 24895 ft | 262 kts | 61° |
| 2026-04-20 03:35 | 36.69211 | -113.75953 | 24890 ft | 249 kts | 61° |
| 2026-04-20 03:35 | 36.70107 | -113.74184 | 24901 ft | 238 kts | 60° |
| 2026-04-20 03:35 | 36.70973 | -113.72471 | 24907 ft | 228 kts | 60° |
| 2026-04-20 03:35 | 36.71800 | -113.70831 | 24902 ft | 219 kts | 60° |
| 2026-04-20 03:36 | 36.72598 | -113.69253 | 24907 ft | 211 kts | 60° |
| 2026-04-20 03:36 | 36.73372 | -113.67729 | 24910 ft | 204 kts | 60° |
| 2026-04-20 03:36 | 36.74111 | -113.66282 | 24912 ft | 197 kts | 60° |
| 2026-04-20 03:36 | 36.74863 | -113.64810 | 24940 ft | 214 kts | 60° |
| 2026-04-20 03:37 | 36.75726 | -113.63091 | 24993 ft | 253 kts | 60° |
| 2026-04-20 03:37 | 36.76724 | -113.61074 | 25018 ft | 292 kts | 60° |
| 2026-04-20 03:37 | 36.77848 | -113.58776 | 25008 ft | 327 kts | 60° |
| 2026-04-20 03:37 | 36.79086 | -113.56228 | 24979 ft | 359 kts | 60° |
| 2026-04-20 03:38 | 36.80424 | -113.53462 | 24973 ft | 385 kts | 60° |
| 2026-04-20 03:38 | 36.81848 | -113.50509 | 24967 ft | 408 kts | 60° |
| 2026-04-20 03:38 | 36.83342 | -113.47407 | 24974 ft | 426 kts | 60° |
| 2026-04-20 03:38 | 36.84877 | -113.44219 | 24976 ft | 435 kts | 60° |
| 2026-04-20 03:39 | 36.86362 | -113.41128 | 24942 ft | 395 kts | 60° |
| 2026-04-20 03:39 | 36.87692 | -113.38300 | 24960 ft | 361 kts | 60° |
| 2026-04-20 03:39 | 36.88905 | -113.35693 | 24980 ft | 334 kts | 61° |
| 2026-04-20 03:39 | 36.90035 | -113.33270 | 25000 ft | 311 kts | 61° |
| 2026-04-20 03:40 | 36.91096 | -113.31007 | 25011 ft | 292 kts | 60° |
| 2026-04-20 03:40 | 36.92097 | -113.28884 | 25027 ft | 275 kts | 60° |
| 2026-04-20 03:40 | 36.93046 | -113.26880 | 25039 ft | 261 kts | 60° |
| 2026-04-20 03:40 | 36.93952 | -113.24974 | 25055 ft | 248 kts | 60° |
| 2026-04-20 03:41 | 36.94815 | -113.23165 | 25070 ft | 237 kts | 60° |
| 2026-04-20 03:41 | 36.95643 | -113.21435 | 25075 ft | 227 kts | 60° |
| 2026-04-20 03:41 | 36.96440 | -113.19775 | 25083 ft | 218 kts | 60° |
| 2026-04-20 03:41 | 36.97207 | -113.18180 | 25095 ft | 210 kts | 60° |
| 2026-04-20 03:42 | 36.97949 | -113.16641 | 25097 ft | 203 kts | 60° |
| 2026-04-20 03:42 | 36.98667 | -113.15157 | 25097 ft | 196 kts | 60° |
| 2026-04-20 03:42 | 36.99382 | -113.13682 | 25141 ft | 215 kts | 60° |
| 2026-04-20 03:42 | 37.00222 | -113.11931 | 25195 ft | 254 kts | 60° |
| 2026-04-20 03:43 | 37.01199 | -113.09878 | 25208 ft | 292 kts | 61° |
| 2026-04-20 03:43 | 37.02302 | -113.07557 | 25193 ft | 328 kts | 60° |
| 2026-04-20 03:43 | 37.03528 | -113.04985 | 25166 ft | 359 kts | 60° |
| 2026-04-20 03:43 | 37.04855 | -113.02197 | 25157 ft | 386 kts | 60° |
| 2026-04-20 03:44 | 37.06265 | -112.99222 | 25141 ft | 408 kts | 60° |
| 2026-04-20 03:44 | 37.07747 | -112.96092 | 25128 ft | 426 kts | 60° |
| 2026-04-20 03:44 | 37.09282 | -112.92850 | 25112 ft | 432 kts | 60° |
| 2026-04-20 03:44 | 37.10739 | -112.89767 | 25085 ft | 391 kts | 60° |
| 2026-04-20 03:45 | 37.12057 | -112.86960 | 25065 ft | 358 kts | 61° |
| 2026-04-20 03:45 | 37.13275 | -112.84372 | 25063 ft | 331 kts | 60° |
| 2026-04-20 03:45 | 37.14411 | -112.81974 | 25053 ft | 309 kts | 60° |
| 2026-04-20 03:45 | 37.15480 | -112.79734 | 25037 ft | 290 kts | 60° |
| 2026-04-20 03:46 | 37.16476 | -112.77659 | 25024 ft | 274 kts | 61° |
| 2026-04-20 03:46 | 37.17453 | -112.75652 | 25017 ft | 259 kts | 60° |
| 2026-04-20 03:46 | 37.18367 | -112.73795 | 25015 ft | 247 kts | 60° |
| 2026-04-20 03:46 | 37.19254 | -112.72003 | 25009 ft | 236 kts | 60° |
| 2026-04-20 03:47 | 37.20108 | -112.70288 | 25015 ft | 227 kts | 60° |
| 2026-04-20 03:47 | 37.20932 | -112.68643 | 25009 ft | 218 kts | 60° |
| 2026-04-20 03:47 | 37.21730 | -112.67056 | 25004 ft | 211 kts | 60° |
| 2026-04-20 03:47 | 37.22500 | -112.65531 | 25006 ft | 203 kts | 60° |
| 2026-04-20 03:48 | 37.23245 | -112.64062 | 25003 ft | 197 kts | 60° |
| 2026-04-20 03:48 | 37.23987 | -112.62603 | 25021 ft | 206 kts | 60° |
| 2026-04-20 03:48 | 37.24824 | -112.60931 | 25076 ft | 246 kts | 60° |
| 2026-04-20 03:48 | 37.25796 | -112.58960 | 25096 ft | 284 kts | 60° |
| 2026-04-20 03:49 | 37.26895 | -112.56706 | 25119 ft | 320 kts | 60° |
| 2026-04-20 03:49 | 37.28097 | -112.54223 | 25081 ft | 352 kts | 60° |
| 2026-04-20 03:49 | 37.29416 | -112.51485 | 25068 ft | 380 kts | 60° |
| 2026-04-20 03:49 | 37.30823 | -112.48559 | 25062 ft | 403 kts | 60° |
| 2026-04-20 03:50 | 37.32304 | -112.45471 | 25058 ft | 422 kts | 60° |
| 2026-04-20 03:50 | 37.33850 | -112.42254 | 25066 ft | 436 kts | 60° |
| 2026-04-20 03:50 | 37.35355 | -112.39133 | 25053 ft | 397 kts | 60° |
| 2026-04-20 03:50 | 37.36717 | -112.36300 | 25041 ft | 362 kts | 60° |
| 2026-04-20 03:51 | 37.37974 | -112.33695 | 25037 ft | 334 kts | 60° |
| 2026-04-20 03:51 | 37.39147 | -112.31282 | 25056 ft | 311 kts | 60° |
| 2026-04-20 03:51 | 37.40246 | -112.29042 | 25067 ft | 292 kts | 60° |
| 2026-04-20 03:51 | 37.41275 | -112.26963 | 25078 ft | 275 kts | 60° |
| 2026-04-20 03:52 | 37.42264 | -112.24974 | 25097 ft | 261 kts | 60° |
| 2026-04-20 03:52 | 37.43206 | -112.23092 | 25106 ft | 247 kts | 60° |
| 2026-04-20 03:52 | 37.44108 | -112.21302 | 25105 ft | 236 kts | 60° |
| 2026-04-20 03:52 | 37.44973 | -112.19594 | 25111 ft | 226 kts | 60° |
| 2026-04-20 03:53 | 37.45803 | -112.17963 | 25119 ft | 217 kts | 60° |
| 2026-04-20 03:53 | 37.46604 | -112.16396 | 25133 ft | 209 kts | 60° |
| 2026-04-20 03:53 | 37.47378 | -112.14893 | 25137 ft | 201 kts | 60° |
| 2026-04-20 03:53 | 37.48126 | -112.13445 | 25142 ft | 194 kts | 60° |
| 2026-04-20 03:54 | 37.48866 | -112.12020 | 25158 ft | 204 kts | 60° |
| 2026-04-20 03:54 | 37.49694 | -112.10398 | 25221 ft | 242 kts | 60° |
| 2026-04-20 03:54 | 37.50668 | -112.08462 | 25244 ft | 281 kts | 60° |
| 2026-04-20 03:54 | 37.51770 | -112.06242 | 25238 ft | 316 kts | 60° |
| 2026-04-20 03:55 | 37.52994 | -112.03755 | 25201 ft | 349 kts | 60° |
| 2026-04-20 03:55 | 37.54316 | -112.01051 | 25188 ft | 376 kts | 60° |
| 2026-04-20 03:55 | 37.55730 | -111.98148 | 25180 ft | 399 kts | 60° |
| 2026-04-20 03:55 | 37.57216 | -111.95092 | 25180 ft | 418 kts | 60° |
| 2026-04-20 03:56 | 37.58764 | -111.91905 | 25171 ft | 433 kts | 60° |
| 2026-04-20 03:56 | 37.60275 | -111.88795 | 25153 ft | 395 kts | 60° |
| 2026-04-20 03:56 | 37.61629 | -111.85999 | 25130 ft | 361 kts | 60° |
| 2026-04-20 03:56 | 37.62890 | -111.83403 | 25120 ft | 333 kts | 60° |
| 2026-04-20 03:57 | 37.64062 | -111.81009 | 25106 ft | 310 kts | 60° |
| 2026-04-20 03:57 | 37.65168 | -111.78773 | 25094 ft | 290 kts | 60° |
| 2026-04-20 03:57 | 37.66208 | -111.76680 | 25089 ft | 273 kts | 60° |
| 2026-04-20 03:57 | 37.67192 | -111.74711 | 25082 ft | 258 kts | 60° |
| 2026-04-20 03:58 | 37.68132 | -111.72840 | 25070 ft | 246 kts | 60° |
| 2026-04-20 03:58 | 37.69030 | -111.71062 | 25062 ft | 234 kts | 60° |
| 2026-04-20 03:58 | 37.69890 | -111.69365 | 25053 ft | 224 kts | 60° |
| 2026-04-20 03:58 | 37.70718 | -111.67740 | 25053 ft | 216 kts | 60° |
| 2026-04-20 03:59 | 37.71510 | -111.66193 | 25071 ft | 208 kts | 60° |
| 2026-04-20 03:59 | 37.72286 | -111.64685 | 25071 ft | 201 kts | 60° |
| 2026-04-20 03:59 | 37.73036 | -111.63234 | 25070 ft | 194 kts | 60° |
| 2026-04-20 03:59 | 37.73768 | -111.61822 | 25072 ft | 194 kts | 60° |
| 2026-04-20 04:00 | 37.74564 | -111.60266 | 25132 ft | 230 kts | 60° |
| 2026-04-20 04:00 | 37.75497 | -111.58412 | 25163 ft | 269 kts | 60° |
| 2026-04-20 04:00 | 37.76561 | -111.56269 | 25168 ft | 306 kts | 60° |
| 2026-04-20 04:00 | 37.77749 | -111.53854 | 25134 ft | 339 kts | 60° |
| 2026-04-20 04:01 | 37.79048 | -111.51197 | 25100 ft | 369 kts | 60° |
| 2026-04-20 04:01 | 37.80440 | -111.48343 | 25093 ft | 393 kts | 60° |
| 2026-04-20 04:01 | 37.81916 | -111.45315 | 25089 ft | 414 kts | 60° |
| 2026-04-20 04:01 | 37.83462 | -111.42139 | 25087 ft | 431 kts | 60° |
| 2026-04-20 04:02 | 37.85015 | -111.38950 | 25072 ft | 417 kts | 60° |
| 2026-04-20 04:02 | 37.86479 | -111.35939 | 25055 ft | 379 kts | 60° |
| 2026-04-20 04:02 | 37.87784 | -111.33254 | 25065 ft | 348 kts | 60° |
| 2026-04-20 04:02 | 37.89011 | -111.30745 | 25062 ft | 323 kts | 60° |
| 2026-04-20 04:03 | 37.90162 | -111.28414 | 25063 ft | 302 kts | 60° |
| 2026-04-20 04:03 | 37.91248 | -111.26235 | 25053 ft | 283 kts | 60° |
| 2026-04-20 04:03 | 37.92279 | -111.24183 | 25053 ft | 268 kts | 60° |
| 2026-04-20 04:03 | 37.93257 | -111.22246 | 25053 ft | 254 kts | 60° |
| 2026-04-20 04:04 | 37.94190 | -111.20409 | 25049 ft | 242 kts | 60° |
| 2026-04-20 04:04 | 37.95078 | -111.18671 | 25050 ft | 232 kts | 60° |
| 2026-04-20 04:04 | 37.95938 | -111.16996 | 25044 ft | 222 kts | 60° |
| 2026-04-20 04:04 | 37.96767 | -111.15389 | 25051 ft | 213 kts | 60° |
| 2026-04-20 04:05 | 37.97570 | -111.13841 | 25031 ft | 206 kts | 60° |
| 2026-04-20 04:05 | 37.98342 | -111.12356 | 25040 ft | 198 kts | 60° |
| 2026-04-20 04:05 | 37.99091 | -111.10918 | 25038 ft | 193 kts | 60° |
| 2026-04-20 04:05 | 37.99867 | -111.09417 | 25092 ft | 221 kts | 60° |
| 2026-04-20 04:06 | 38.00452 | -111.08266 | 25128 ft | 247 kts | 60° |
| 2026-04-20 04:06 | 38.01445 | -111.06289 | 25142 ft | 285 kts | 60° |
| 2026-04-20 04:06 | 38.02961 | -111.03230 | 25120 ft | 331 kts | 60° |
| 2026-04-20 04:06 | 38.04240 | -111.00629 | 25083 ft | 362 kts | 60° |
| 2026-04-20 04:07 | 38.05143 | -110.98783 | 25073 ft | 379 kts | 60° |
| 2026-04-20 04:07 | 38.06578 | -110.95844 | 25066 ft | 402 kts | 60° |
| 2026-04-20 04:07 | 38.08592 | -110.91706 | 25064 ft | 426 kts | 60° |
| 2026-04-20 04:07 | 38.10168 | -110.88467 | 25068 ft | 425 kts | 60° |
| 2026-04-20 04:08 | 38.11182 | -110.86383 | 25057 ft | 397 kts | 60° |
| 2026-04-20 04:08 | 38.12564 | -110.83535 | 25053 ft | 362 kts | 60° |
| 2026-04-20 04:08 | 38.13823 | -110.80950 | 25057 ft | 335 kts | 60° |
| 2026-04-20 04:08 | 38.15009 | -110.78530 | 25068 ft | 311 kts | 60° |
| 2026-04-20 04:09 | 38.16113 | -110.76282 | 25073 ft | 289 kts | 60° |
| 2026-04-20 04:09 | 38.17147 | -110.74187 | 25075 ft | 272 kts | 60° |
| 2026-04-20 04:09 | 38.18129 | -110.72209 | 25080 ft | 257 kts | 60° |
| 2026-04-20 04:09 | 38.19065 | -110.70335 | 25083 ft | 244 kts | 60° |
| 2026-04-20 04:10 | 38.19955 | -110.68560 | 25083 ft | 233 kts | 60° |
| 2026-04-20 04:10 | 38.20810 | -110.66863 | 25087 ft | 222 kts | 60° |
| 2026-04-20 04:10 | 38.21629 | -110.65242 | 25089 ft | 213 kts | 60° |
| 2026-04-20 04:10 | 38.22418 | -110.63689 | 25091 ft | 205 kts | 60° |
| 2026-04-20 04:11 | 38.23181 | -110.62192 | 25036 ft | 197 kts | 60° |
| 2026-04-20 04:11 | 38.23918 | -110.60754 | 25034 ft | 191 kts | 60° |
| 2026-04-20 04:11 | 38.24680 | -110.59261 | 25069 ft | 218 kts | 60° |
| 2026-04-20 04:11 | 38.25570 | -110.57486 | 25114 ft | 258 kts | 60° |
| 2026-04-20 04:12 | 38.26596 | -110.55411 | 25122 ft | 295 kts | 60° |
| 2026-04-20 04:12 | 38.27751 | -110.53055 | 25100 ft | 330 kts | 60° |
| 2026-04-20 04:12 | 38.28997 | -110.50495 | 25075 ft | 359 kts | 60° |
| 2026-04-20 04:12 | 38.30363 | -110.47677 | 25065 ft | 385 kts | 60° |
| 2026-04-20 04:13 | 38.31815 | -110.44678 | 25057 ft | 407 kts | 60° |
| 2026-04-20 04:13 | 38.33329 | -110.41543 | 25057 ft | 425 kts | 60° |
| 2026-04-20 04:13 | 38.34894 | -110.38304 | 25054 ft | 419 kts | 59° |
| 2026-04-20 04:13 | 38.36343 | -110.35301 | 25037 ft | 379 kts | 60° |
| 2026-04-20 04:14 | 38.37663 | -110.32559 | 25030 ft | 348 kts | 60° |
| 2026-04-20 04:14 | 38.38885 | -110.30037 | 25029 ft | 321 kts | 60° |
| 2026-04-20 04:14 | 38.40013 | -110.27726 | 25029 ft | 299 kts | 60° |
| 2026-04-20 04:14 | 38.41082 | -110.25553 | 25030 ft | 281 kts | 60° |
| 2026-04-20 04:15 | 38.42097 | -110.23504 | 25036 ft | 265 kts | 60° |
| 2026-04-20 04:15 | 38.43060 | -110.21571 | 25035 ft | 251 kts | 60° |
| 2026-04-20 04:15 | 38.43978 | -110.19742 | 25035 ft | 239 kts | 60° |
| 2026-04-20 04:15 | 38.44854 | -110.18002 | 25036 ft | 228 kts | 60° |
| 2026-04-20 04:16 | 38.45693 | -110.16341 | 25030 ft | 218 kts | 60° |
| 2026-04-20 04:16 | 38.46500 | -110.14752 | 25032 ft | 209 kts | 60° |
| 2026-04-20 04:16 | 38.47276 | -110.13229 | 25030 ft | 201 kts | 59° |
| 2026-04-20 04:16 | 38.48019 | -110.11760 | 25030 ft | 193 kts | 59° |
| 2026-04-20 04:17 | 38.48740 | -110.10319 | 25046 ft | 201 kts | 60° |
| 2026-04-20 04:17 | 38.49557 | -110.08662 | 25102 ft | 240 kts | 59° |
| 2026-04-20 04:17 | 38.50507 | -110.06703 | 25119 ft | 279 kts | 59° |
| 2026-04-20 04:17 | 38.51589 | -110.04452 | 25115 ft | 314 kts | 60° |
| 2026-04-20 04:18 | 38.52787 | -110.01946 | 25080 ft | 347 kts | 59° |
| 2026-04-20 04:18 | 38.54079 | -109.99237 | 25068 ft | 374 kts | 59° |
| 2026-04-20 04:18 | 38.55475 | -109.96303 | 25061 ft | 398 kts | 59° |
| 2026-04-20 04:18 | 38.56950 | -109.93204 | 25066 ft | 417 kts | 59° |
| 2026-04-20 04:19 | 38.58489 | -109.89969 | 25067 ft | 433 kts | 59° |
| 2026-04-20 04:19 | 38.60001 | -109.86791 | 25057 ft | 399 kts | 59° |
| 2026-04-20 04:19 | 38.61374 | -109.83891 | 25043 ft | 363 kts | 60° |
| 2026-04-20 04:19 | 38.62630 | -109.81243 | 25040 ft | 335 kts | 60° |
| 2026-04-20 04:20 | 38.63798 | -109.78792 | 25042 ft | 310 kts | 59° |
| 2026-04-20 04:20 | 38.64885 | -109.76513 | 25044 ft | 290 kts | 59° |
| 2026-04-20 04:20 | 38.65894 | -109.74399 | 25043 ft | 273 kts | 59° |
| 2026-04-20 04:20 | 38.66857 | -109.72383 | 25044 ft | 258 kts | 59° |
| 2026-04-20 04:21 | 38.67774 | -109.70473 | 25104 ft | 245 kts | 59° |
| 2026-04-20 04:21 | 38.68643 | -109.68664 | 25043 ft | 233 kts | 59° |
| 2026-04-20 04:21 | 38.69474 | -109.66938 | 25043 ft | 223 kts | 59° |
| 2026-04-20 04:21 | 38.70271 | -109.65287 | 25049 ft | 213 kts | 59° |
| 2026-04-20 04:22 | 38.71039 | -109.63701 | 25047 ft | 205 kts | 59° |
| 2026-04-20 04:22 | 38.71780 | -109.62176 | 25046 ft | 198 kts | 59° |
| 2026-04-20 04:22 | 38.72495 | -109.60706 | 25045 ft | 191 kts | 59° |
| 2026-04-20 04:22 | 38.73192 | -109.59275 | 25060 ft | 201 kts | 59° |
| 2026-04-20 04:23 | 38.73999 | -109.57606 | 25122 ft | 240 kts | 59° |
| 2026-04-20 04:23 | 38.74942 | -109.55639 | 25142 ft | 278 kts | 59° |
| 2026-04-20 04:23 | 38.76017 | -109.53383 | 25137 ft | 314 kts | 59° |
| 2026-04-20 04:23 | 38.77213 | -109.50861 | 25101 ft | 346 kts | 59° |
| 2026-04-20 04:24 | 38.78514 | -109.48114 | 25088 ft | 374 kts | 59° |
| 2026-04-20 04:24 | 38.79905 | -109.45175 | 25079 ft | 397 kts | 59° |
| 2026-04-20 04:24 | 38.81368 | -109.42066 | 25077 ft | 416 kts | 59° |
| 2026-04-20 04:24 | 38.82887 | -109.38824 | 25077 ft | 432 kts | 59° |
| 2026-04-20 04:25 | 38.84373 | -109.35642 | 25070 ft | 395 kts | 59° |
| 2026-04-20 04:25 | 38.85717 | -109.32747 | 25056 ft | 360 kts | 60° |
| 2026-04-20 04:25 | 38.86934 | -109.30125 | 25054 ft | 332 kts | 59° |
| 2026-04-20 04:25 | 38.88077 | -109.27671 | 25054 ft | 308 kts | 59° |
| 2026-04-20 04:26 | 38.89143 | -109.25392 | 25054 ft | 289 kts | 59° |
| 2026-04-20 04:26 | 38.90150 | -109.23248 | 25054 ft | 271 kts | 59° |
| 2026-04-20 04:26 | 38.91101 | -109.21228 | 25055 ft | 257 kts | 59° |
| 2026-04-20 04:26 | 38.92002 | -109.19316 | 25055 ft | 244 kts | 59° |
| 2026-04-20 04:27 | 38.92860 | -109.17500 | 25055 ft | 232 kts | 59° |
| 2026-04-20 04:27 | 38.93679 | -109.15767 | 25054 ft | 222 kts | 59° |
| 2026-04-20 04:27 | 38.94467 | -109.14102 | 25055 ft | 213 kts | 59° |
| 2026-04-20 04:27 | 38.95225 | -109.12503 | 25055 ft | 205 kts | 59° |
| 2026-04-20 04:28 | 38.95944 | -109.10983 | 25058 ft | 198 kts | 59° |
| 2026-04-20 04:28 | 38.96632 | -109.09488 | 25057 ft | 191 kts | 59° |
| 2026-04-20 04:28 | 38.97299 | -109.08022 | 25065 ft | 196 kts | 59° |
| 2026-04-20 04:28 | 38.98056 | -109.06362 | 25125 ft | 235 kts | 59° |
| 2026-04-20 04:29 | 38.98951 | -109.04400 | 25148 ft | 273 kts | 59° |
| 2026-04-20 04:29 | 38.99979 | -109.02149 | 25144 ft | 309 kts | 59° |
| 2026-04-20 04:29 | 39.01129 | -108.99635 | 25108 ft | 342 kts | 59° |
| 2026-04-20 04:29 | 39.02385 | -108.96891 | 25094 ft | 370 kts | 59° |
| 2026-04-20 04:30 | 39.03735 | -108.93945 | 25089 ft | 393 kts | 59° |
| 2026-04-20 04:30 | 39.05163 | -108.90834 | 25085 ft | 413 kts | 59° |
| 2026-04-20 04:30 | 39.06636 | -108.87629 | 25087 ft | 429 kts | 59° |
| 2026-04-20 04:30 | 39.08121 | -108.84397 | 25076 ft | 400 kts | 59° |
| 2026-04-20 04:31 | 39.09467 | -108.81448 | 25056 ft | 365 kts | 59° |
| 2026-04-20 04:31 | 39.10697 | -108.78745 | 25054 ft | 335 kts | 59° |
| 2026-04-20 04:31 | 39.11832 | -108.76248 | 25058 ft | 310 kts | 59° |
| 2026-04-20 04:31 | 39.12875 | -108.73923 | 25117 ft | 289 kts | 59° |
| 2026-04-20 04:32 | 39.13843 | -108.71743 | 25122 ft | 272 kts | 59° |
| 2026-04-20 04:32 | 39.14751 | -108.69688 | 25127 ft | 256 kts | 59° |
| 2026-04-20 04:32 | 39.15607 | -108.67746 | 25131 ft | 243 kts | 59° |
| 2026-04-20 04:32 | 39.16419 | -108.65902 | 25134 ft | 231 kts | 59° |
| 2026-04-20 04:33 | 39.17183 | -108.64163 | 25136 ft | 220 kts | 59° |
| 2026-04-20 04:33 | 39.17928 | -108.62463 | 25138 ft | 210 kts | 59° |
| 2026-04-20 04:33 | 39.18623 | -108.60874 | 25141 ft | 202 kts | 59° |
| 2026-04-20 04:33 | 39.19300 | -108.59326 | 25140 ft | 194 kts | 59° |
| 2026-04-20 04:34 | 39.19949 | -108.57836 | 25139 ft | 187 kts | 59° |
| 2026-04-20 04:34 | 39.20587 | -108.56371 | 25154 ft | 196 kts | 59° |
| 2026-04-20 04:34 | 39.21326 | -108.54684 | 25211 ft | 235 kts | 59° |
| 2026-04-20 04:34 | 39.22205 | -108.52700 | 25231 ft | 274 kts | 59° |
| 2026-04-20 04:35 | 39.23215 | -108.50431 | 25223 ft | 310 kts | 59° |
| 2026-04-20 04:35 | 39.24349 | -108.47893 | 25179 ft | 342 kts | 59° |
| 2026-04-20 04:35 | 39.25589 | -108.45128 | 25161 ft | 369 kts | 59° |
| 2026-04-20 04:35 | 39.26921 | -108.42165 | 25151 ft | 393 kts | 59° |
| 2026-04-20 04:36 | 39.29781 | -108.35748 | 25133 ft | 428 kts | 59° |
| 2026-04-20 04:36 | 39.31207 | -108.32519 | 25118 ft | 394 kts | 59° |
| 2026-04-20 04:36 | 39.32493 | -108.29568 | 25097 ft | 359 kts | 59° |
| 2026-04-20 04:37 | 39.33658 | -108.26872 | 25090 ft | 330 kts | 59° |
| 2026-04-20 04:37 | 39.34734 | -108.24377 | 25084 ft | 306 kts | 59° |
| 2026-04-20 04:37 | 39.35736 | -108.22049 | 25080 ft | 286 kts | 59° |
| 2026-04-20 04:37 | 39.36670 | -108.19871 | 25074 ft | 269 kts | 59° |
| 2026-04-20 04:38 | 39.37550 | -108.17814 | 25074 ft | 254 kts | 59° |
| 2026-04-20 04:38 | 39.38377 | -108.15869 | 25079 ft | 241 kts | 59° |
| 2026-04-20 04:38 | 39.39151 | -108.14041 | 25078 ft | 229 kts | 59° |
| 2026-04-20 04:38 | 39.39895 | -108.12273 | 25078 ft | 219 kts | 59° |
| 2026-04-20 04:39 | 39.40603 | -108.10583 | 25077 ft | 209 kts | 59° |
| 2026-04-20 04:39 | 39.41281 | -108.08961 | 25078 ft | 200 kts | 59° |
| 2026-04-20 04:39 | 39.41930 | -108.07404 | 25078 ft | 193 kts | 59° |
| 2026-04-20 04:39 | 39.42552 | -108.05904 | 25077 ft | 186 kts | 59° |
| 2026-04-20 04:40 | 39.43188 | -108.04374 | 25110 ft | 208 kts | 59° |
| 2026-04-20 04:40 | 39.43950 | -108.02573 | 25162 ft | 248 kts | 59° |
| 2026-04-20 04:40 | 39.44851 | -108.00470 | 25181 ft | 286 kts | 59° |
| 2026-04-20 04:40 | 39.45871 | -107.98115 | 25166 ft | 320 kts | 59° |
| 2026-04-20 04:41 | 39.47024 | -107.95473 | 25131 ft | 352 kts | 59° |
| 2026-04-20 04:41 | 39.48279 | -107.92612 | 25121 ft | 378 kts | 59° |
| 2026-04-20 04:41 | 39.49623 | -107.89565 | 25114 ft | 400 kts | 59° |
| 2026-04-20 04:41 | 39.51040 | -107.86363 | 25120 ft | 418 kts | 59° |
| 2026-04-20 04:42 | 39.52514 | -107.83043 | 25120 ft | 422 kts | 59° |
| 2026-04-20 04:42 | 39.53899 | -107.79903 | 25196 ft | 383 kts | 59° |
| 2026-04-20 04:42 | 39.55154 | -107.77024 | 25188 ft | 350 kts | 59° |
| 2026-04-20 04:42 | 39.56302 | -107.74375 | 25186 ft | 324 kts | 59° |
| 2026-04-20 04:43 | 39.57362 | -107.71911 | 25187 ft | 302 kts | 59° |
| 2026-04-20 04:43 | 39.58332 | -107.69632 | 25187 ft | 283 kts | 59° |
| 2026-04-20 04:43 | 39.59251 | -107.67456 | 25187 ft | 267 kts | 59° |
| 2026-04-20 04:43 | 39.59491 | -107.66887 | 25188 ft | 263 kts | 59° |
| 2026-04-20 05:47 | 39.60133 | -107.65369 | 25198 ft | 253 kts | 59° |
| 2026-04-20 05:48 | 39.60785 | -107.63348 | 25179 ft | 242 kts | 79° |
| 2026-04-20 05:48 | 39.60888 | -107.61114 | 24740 ft | 252 kts | 91° |
| 2026-04-20 05:48 | 39.60827 | -107.58797 | 24252 ft | 262 kts | 92° |
| 2026-04-20 05:48 | 39.60725 | -107.56437 | 23805 ft | 269 kts | 96° |
| 2026-04-20 05:49 | 39.60449 | -107.54023 | 23285 ft | 274 kts | 101° |
| 2026-04-20 05:49 | 39.60119 | -107.51578 | 22766 ft | 276 kts | 97° |
| 2026-04-20 05:49 | 39.60043 | -107.49070 | 22264 ft | 279 kts | 89° |
| 2026-04-20 05:49 | 39.60145 | -107.46550 | 21787 ft | 280 kts | 86° |
| 2026-04-20 05:50 | 39.60303 | -107.44029 | 21310 ft | 281 kts | 85° |
| 2026-04-20 05:50 | 39.60477 | -107.41496 | 20851 ft | 281 kts | 85° |
| 2026-04-20 05:50 | 39.60656 | -107.38965 | 20415 ft | 281 kts | 84° |
| 2026-04-20 05:50 | 39.60833 | -107.36442 | 19986 ft | 281 kts | 85° |
| 2026-04-20 05:51 | 39.61006 | -107.33917 | 19550 ft | 281 kts | 85° |
| 2026-04-20 05:51 | 39.61179 | -107.31400 | 19164 ft | 280 kts | 85° |
| 2026-04-20 05:51 | 39.61352 | -107.28913 | 18767 ft | 279 kts | 85° |
| 2026-04-20 05:51 | 39.61531 | -107.26403 | 18338 ft | 279 kts | 85° |
| 2026-04-20 05:52 | 39.61711 | -107.23907 | 17899 ft | 277 kts | 85° |
| 2026-04-20 05:52 | 39.61893 | -107.21417 | 17448 ft | 276 kts | 85° |
| 2026-04-20 05:52 | 39.62076 | -107.18942 | 17008 ft | 274 kts | 85° |
| 2026-04-20 05:52 | 39.62262 | -107.16487 | 16597 ft | 272 kts | 85° |
| 2026-04-20 05:53 | 39.62452 | -107.14049 | 16189 ft | 271 kts | 85° |
| 2026-04-20 05:53 | 39.62644 | -107.11632 | 15782 ft | 269 kts | 84° |
| 2026-04-20 05:53 | 39.62839 | -107.09227 | 15388 ft | 267 kts | 84° |
| 2026-04-20 05:53 | 39.63034 | -107.06836 | 15012 ft | 265 kts | 84° |
| 2026-04-20 05:54 | 39.63228 | -107.04467 | 14640 ft | 264 kts | 84° |
| 2026-04-20 05:54 | 39.63423 | -107.02108 | 14260 ft | 262 kts | 85° |
| 2026-04-20 05:54 | 39.63622 | -106.99765 | 13846 ft | 261 kts | 84° |
| 2026-04-20 05:54 | 39.63822 | -106.97434 | 13429 ft | 259 kts | 84° |
| 2026-04-20 05:55 | 39.64021 | -106.95119 | 13019 ft | 257 kts | 84° |
| 2026-04-20 05:55 | 39.64216 | -106.92822 | 12621 ft | 255 kts | 84° |
| 2026-04-20 05:55 | 39.64407 | -106.90544 | 12316 ft | 250 kts | 84° |
| 2026-04-20 05:55 | 39.64590 | -106.88394 | 12278 ft | 235 kts | 84° |
| 2026-04-20 05:56 | 39.64766 | -106.86352 | 12188 ft | 221 kts | 84° |
| 2026-04-20 05:56 | 39.64932 | -106.84421 | 12187 ft | 210 kts | 84° |
| 2026-04-20 05:56 | 39.65092 | -106.82585 | 12189 ft | 200 kts | 84° |
| 2026-04-20 05:56 | 39.65247 | -106.80822 | 12190 ft | 192 kts | 84° |
| 2026-04-20 05:57 | 39.65397 | -106.79126 | 12190 ft | 186 kts | 84° |
| 2026-04-20 05:57 | 39.65543 | -106.77487 | 12190 ft | 179 kts | 84° |
| 2026-04-20 05:57 | 39.65683 | -106.75899 | 12192 ft | 174 kts | 84° |
| 2026-04-20 05:57 | 39.65819 | -106.74387 | 12187 ft | 169 kts | 84° |
| 2026-04-20 05:58 | 39.65957 | -106.72894 | 12191 ft | 164 kts | 84° |
| 2026-04-20 05:58 | 39.66090 | -106.71433 | 12196 ft | 161 kts | 84° |
| 2026-04-20 05:58 | 39.66220 | -106.69990 | 12192 ft | 159 kts | 84° |
| 2026-04-20 05:58 | 39.66348 | -106.68574 | 12188 ft | 156 kts | 84° |
| 2026-04-20 05:59 | 39.66474 | -106.67187 | 12189 ft | 152 kts | 84° |
| 2026-04-20 05:59 | 39.66607 | -106.65705 | 12250 ft | 189 kts | 84° |
| 2026-04-20 05:59 | 39.66768 | -106.63826 | 12693 ft | 225 kts | 84° |
| 2026-04-20 05:59 | 39.66950 | -106.61684 | 13239 ft | 256 kts | 84° |
| 2026-04-20 06:00 | 39.67156 | -106.59152 | 13213 ft | 307 kts | 85° |
| 2026-04-20 06:00 | 39.67377 | -106.56202 | 13156 ft | 349 kts | 85° |
| 2026-04-20 06:00 | 39.67588 | -106.53069 | 13061 ft | 338 kts | 85° |
| 2026-04-20 06:00 | 39.67818 | -106.50196 | 12918 ft | 305 kts | 84° |
| 2026-04-20 06:01 | 39.68065 | -106.47584 | 12759 ft | 279 kts | 83° |
| 2026-04-20 06:01 | 39.68292 | -106.45173 | 12599 ft | 259 kts | 84° |
| 2026-04-20 06:01 | 39.68496 | -106.42925 | 12446 ft | 243 kts | 84° |
| 2026-04-20 06:01 | 39.68685 | -106.40801 | 12296 ft | 231 kts | 84° |
| 2026-04-20 06:02 | 39.68863 | -106.38777 | 12194 ft | 219 kts | 84° |
| 2026-04-20 06:02 | 39.69033 | -106.36869 | 12194 ft | 205 kts | 84° |
| 2026-04-20 06:02 | 39.69193 | -106.35100 | 12385 ft | 196 kts | 84° |
| 2026-04-20 06:02 | 39.69360 | -106.33204 | 12950 ft | 224 kts | 84° |
| 2026-04-20 06:03 | 39.69536 | -106.31108 | 13769 ft | 239 kts | 84° |
| 2026-04-20 06:03 | 39.69711 | -106.29010 | 14950 ft | 232 kts | 84° |
| 2026-04-20 06:03 | 39.69881 | -106.26949 | 16117 ft | 227 kts | 84° |
| 2026-04-20 06:03 | 39.70036 | -106.24920 | 17235 ft | 224 kts | 84° |
| 2026-04-20 06:04 | 39.70178 | -106.22913 | 18312 ft | 221 kts | 84° |
| 2026-04-20 06:04 | 39.70309 | -106.20931 | 19269 ft | 218 kts | 84° |
| 2026-04-20 06:04 | 39.70438 | -106.18918 | 19941 ft | 233 kts | 84° |
| 2026-04-20 06:04 | 39.70581 | -106.16675 | 20208 ft | 267 kts | 84° |
| 2026-04-20 06:05 | 39.70744 | -106.14112 | 20210 ft | 309 kts | 84° |
| 2026-04-20 06:05 | 39.70932 | -106.11167 | 20207 ft | 345 kts | 84° |
| 2026-04-20 06:05 | 39.71135 | -106.07905 | 20202 ft | 376 kts | 84° |
| 2026-04-20 06:05 | 39.71345 | -106.04396 | 20189 ft | 403 kts | 85° |
| 2026-04-20 06:06 | 39.71551 | -106.00850 | 20180 ft | 372 kts | 84° |
| 2026-04-20 06:06 | 39.71771 | -105.97676 | 20162 ft | 337 kts | 83° |
| 2026-04-20 06:06 | 39.71989 | -105.94772 | 20156 ft | 309 kts | 83° |
| 2026-04-20 06:06 | 39.72180 | -105.92100 | 20143 ft | 285 kts | 83° |
| 2026-04-20 06:07 | 39.72344 | -105.89620 | 20138 ft | 266 kts | 84° |
| 2026-04-20 06:07 | 39.72494 | -105.87299 | 20142 ft | 249 kts | 84° |
| 2026-04-20 06:07 | 39.72629 | -105.85123 | 20143 ft | 236 kts | 84° |
| 2026-04-20 06:07 | 39.72754 | -105.83052 | 20142 ft | 223 kts | 84° |
| 2026-04-20 06:08 | 39.72871 | -105.81089 | 20142 ft | 213 kts | 84° |
| 2026-04-20 06:08 | 39.72979 | -105.79224 | 20139 ft | 204 kts | 84° |
| 2026-04-20 06:08 | 39.73084 | -105.77408 | 20126 ft | 194 kts | 84° |
| 2026-04-20 06:08 | 39.73181 | -105.75710 | 20125 ft | 188 kts | 84° |
| 2026-04-20 06:09 | 39.73273 | -105.74051 | 20125 ft | 181 kts | 84° |
| 2026-04-20 06:09 | 39.73365 | -105.72394 | 20146 ft | 197 kts | 84° |
| 2026-04-20 06:09 | 39.73481 | -105.70413 | 20271 ft | 241 kts | 84° |
| 2026-04-20 06:09 | 39.73625 | -105.68088 | 20462 ft | 276 kts | 84° |
| 2026-04-20 06:10 | 39.73797 | -105.65408 | 20449 ft | 318 kts | 84° |
| 2026-04-20 06:10 | 39.73990 | -105.62363 | 20389 ft | 355 kts | 84° |
| 2026-04-20 06:10 | 39.74193 | -105.58995 | 20062 ft | 394 kts | 84° |
| 2026-04-20 06:10 | 39.74389 | -105.55417 | 19560 ft | 385 kts | 85° |
| 2026-04-20 06:11 | 39.74589 | -105.52121 | 19045 ft | 359 kts | 84° |
| 2026-04-20 06:11 | 39.74811 | -105.48989 | 18518 ft | 339 kts | 83° |
| 2026-04-20 06:11 | 39.75033 | -105.46006 | 17948 ft | 323 kts | 83° |
| 2026-04-20 06:11 | 39.75244 | -105.43158 | 17378 ft | 311 kts | 84° |
| 2026-04-20 06:12 | 39.75440 | -105.40403 | 16852 ft | 299 kts | 84° |
| 2026-04-20 06:12 | 39.75619 | -105.37761 | 16461 ft | 286 kts | 84° |
| 2026-04-20 06:12 | 39.75818 | -105.35233 | 16035 ft | 276 kts | 82° |
| 2026-04-20 06:12 | 39.76089 | -105.32823 | 15619 ft | 268 kts | 81° |
| 2026-04-20 06:13 | 39.76426 | -105.30419 | 15223 ft | 280 kts | 75° |
| 2026-04-20 06:13 | 39.77043 | -105.27940 | 14767 ft | 294 kts | 64° |
| 2026-04-20 06:13 | 39.78063 | -105.25571 | 14629 ft | 310 kts | 50° |
| 2026-04-20 06:13 | 39.79550 | -105.23453 | 14589 ft | 325 kts | 42° |
| 2026-04-20 06:14 | 39.81245 | -105.21399 | 14450 ft | 341 kts | 41° |
| 2026-04-20 06:14 | 39.82964 | -105.19180 | 14331 ft | 353 kts | 48° |
| 2026-04-20 06:14 | 39.84464 | -105.16613 | 14131 ft | 356 kts | 58° |
| 2026-04-20 06:14 | 39.85463 | -105.13821 | 13664 ft | 327 kts | 70° |
| 2026-04-20 06:15 | 39.86089 | -105.11100 | 13310 ft | 301 kts | 77° |
| 2026-04-20 06:15 | 39.86411 | -105.08518 | 13041 ft | 278 kts | 85° |
| 2026-04-20 06:15 | 39.86581 | -105.06116 | 12715 ft | 264 kts | 85° |
| 2026-04-20 06:15 | 39.86766 | -105.03764 | 12196 ft | 260 kts | 84° |
| 2026-04-20 06:16 | 39.86992 | -105.01421 | 11517 ft | 263 kts | 83° |
| 2026-04-20 06:16 | 39.87280 | -104.99071 | 10738 ft | 264 kts | 83° |
| 2026-04-20 06:16 | 39.87507 | -104.96749 | 10237 ft | 249 kts | 86° |
| 2026-04-20 06:16 | 39.87675 | -104.94560 | 9992 ft | 241 kts | 87° |
| 2026-04-20 06:17 | 39.87828 | -104.92394 | 9788 ft | 240 kts | 86° |
| 2026-04-20 06:17 | 39.88048 | -104.90206 | 9415 ft | 247 kts | 84° |
| 2026-04-20 06:17 | 39.88282 | -104.87989 | 9131 ft | 246 kts | 88° |
| 2026-04-20 06:17 | 39.88209 | -104.85797 | 8926 ft | 240 kts | 99° |
| 2026-04-20 06:18 | 39.88021 | -104.83637 | 8654 ft | 239 kts | 98° |
| 2026-04-20 06:18 | 39.87865 | -104.81575 | 8303 ft | 214 kts | 97° |
| 2026-04-20 06:18 | 39.87798 | -104.79775 | 7997 ft | 186 kts | 93° |
| 2026-04-20 06:18 | 39.87795 | -104.78143 | 7812 ft | 175 kts | 95° |
| 2026-04-20 06:19 | 39.87794 | -104.77879 | 7775 ft | 174 kts | 95° |
| 2026-04-20 06:19 | 39.87799 | -104.76374 | 7497 ft | 168 kts | 92° |
| 2026-04-20 06:19 | 39.87801 | -104.74869 | 7230 ft | 166 kts | 96° |
| 2026-04-20 06:20 | 39.87802 | -104.73356 | 6993 ft | 167 kts | 95° |
| 2026-04-20 06:20 | 39.87791 | -104.71857 | 6747 ft | 165 kts | 97° |
| 2026-04-20 06:20 | 39.87782 | -104.71265 | 6636 ft | 166 kts | 97° |
| 2026-04-20 06:20 | 39.87768 | -104.70279 | 6407 ft | 163 kts | 96° |
| 2026-04-20 06:21 | 39.87768 | -104.68824 | 6103 ft | 158 kts | 94° |
| 2026-04-20 06:21 | 39.87764 | -104.67394 | 5855 ft | 154 kts | 94° |
| 2026-04-20 06:21 | 39.87756 | -104.66028 | 5417 ft | 149 kts | 91° |
| 2026-04-20 06:21 | 39.87736 | -104.64821 | 5345 ft | 118 kts | 90° |
| 2026-04-20 06:22 | 39.87734 | -104.63955 | 5324 ft | 76 kts | 90° |
| 2026-04-20 06:22 | 39.87730 | -104.63394 | 5325 ft | 51 kts | 93° |
| 2026-04-20 06:22 | 39.87674 | -104.63091 | 5317 ft | 2 kts | 116° |
| 2026-04-20 06:22 | 39.87672 | -104.63087 | 5317 ft | 2 kts | 116° |
| 2026-04-20 06:23 | 39.87672 | -104.63086 | 5317 ft | 2 kts | 116° |